Terminal Aerodrome Forecast
Issued by NWS Wilmington, OH

Home | Current Version | Previous Version | Text Only | Print | Product List | Glossary On
Versions: 1 2 3 4 5 6 7 8 9 10 11 12 13 14 15 16 17 18 19 20 21 22 23 24 25 26 27 28 29
000
FTUS41 KILN 051124
TAFCVG
TAF
KCVG 051124Z 0512/0618 04003KT P6SM SCT250
     FM051700 03004KT P6SM SCT040 SCT150
     FM060000 05006KT P6SM BKN250
     FM060300 09005KT P6SM VCSH BKN040 OVC120
     FM060800 09005KT P6SM -SHRA BKN030 OVC100
     FM061200 09007KT P6SM -SHRA OVC010=

USA.gov is the U.S. government's official web portal to all federal, state and local government web resources and services.